Time;durP1;ratioP1;P1;durP2;ratioP2;P2;SDS_P1;SDS_P2;PMS_P1;PMS_P2;Temp;Humidity;BMP_temperature;BMP_pressure;BME280_temperature;BME280_humidity;BME280_pressure;Samples;Min_cycle;Max_cycle;Signal;HPM_P1;HPM_P2
2023/10/26 00:00:28;;;;;;;19.50;14.70;;;;;;;10.37;75.31;97350.63;234607;214;138806;-58
2023/10/26 00:05:52;;;;;;;18.60;14.50;;;;;;;10.36;75.13;97349.85;234388;214;137740;-58
2023/10/26 00:10:55;;;;;;;22.60;15.20;;;;;;;10.34;75.29;97348.02;234454;214;149149;-58
2023/10/26 00:15:58;;;;;;;22.20;15.40;;;;;;;10.33;75.55;97340.85;234570;214;139844;-58
2023/10/26 00:21:02;;;;;;;20.20;14.50;;;;;;;10.35;75.78;97346.67;234394;215;138282;-56
2023/10/26 00:26:05;;;;;;;19.70;14.00;;;;;;;10.33;75.61;97339.05;234439;214;150208;-56
2023/10/26 00:31:08;;;;;;;22.40;14.00;;;;;;;10.32;75.96;97333.70;234161;214;140012;-57
2023/10/26 00:36:12;;;;;;;22.90;14.10;;;;;;;10.36;76.03;97330.17;234488;214;138711;-57
2023/10/26 00:41:15;;;;;;;20.20;14.10;;;;;;;10.44;76.19;97323.75;234167;214;151910;-57
2023/10/26 00:46:18;;;;;;;21.60;15.50;;;;;;;10.52;76.14;97329.81;234623;214;139681;-57
2023/10/26 00:51:22;;;;;;;23.70;14.70;;;;;;;10.57;76.03;97328.25;234338;215;138309;-57
2023/10/26 00:56:25;;;;;;;21.20;15.30;;;;;;;10.64;76.24;97322.49;234525;214;149970;-56
2023/10/26 01:01:30;;;;;;;17.00;14.20;;;;;;;10.72;76.16;97325.66;234520;214;138744;-56
2023/10/26 01:06:33;;;;;;;19.90;13.80;;;;;;;10.72;76.19;97326.00;234558;214;138859;-58
2023/10/26 01:11:37;;;;;;;22.40;13.70;;;;;;;10.69;76.43;97324.34;234583;214;150198;-57
2023/10/26 01:16:41;;;;;;;21.60;13.40;;;;;;;10.71;76.40;97325.11;234490;214;139893;-57
2023/10/26 01:21:49;;;;;;;22.60;13.70;;;;;;;10.75;76.33;97321.84;234440;215;139451;-57
2023/10/26 01:26:52;;;;;;;18.50;14.00;;;;;;;10.76;75.87;97313.77;234428;215;149899;-56
2023/10/26 01:31:55;;;;;;;18.00;14.40;;;;;;;10.72;75.50;97313.83;234458;214;138654;-58
2023/10/26 01:36:58;;;;;;;19.20;14.20;;;;;;;10.65;74.90;97311.35;234474;214;137593;-59
2023/10/26 01:42:02;;;;;;;18.60;14.00;;;;;;;10.56;74.65;97306.23;233923;214;149367;-55
2023/10/26 01:47:06;;;;;;;22.90;14.20;;;;;;;10.43;74.69;97304.32;233925;214;139676;-58
2023/10/26 01:52:09;;;;;;;19.50;14.20;;;;;;;10.32;74.74;97309.08;234383;215;137583;-54
2023/10/26 01:57:12;;;;;;;24.30;13.40;;;;;;;10.22;74.75;97302.34;234512;214;149936;-57
2023/10/26 02:02:15;;;;;;;18.80;12.70;;;;;;;10.20;74.92;97289.02;234460;213;138818;-55
2023/10/26 02:07:18;;;;;;;17.10;12.60;;;;;;;10.25;74.79;97274.05;234458;215;141393;-56
2023/10/26 02:12:22;;;;;;;19.20;13.80;;;;;;;10.24;74.76;97273.94;234662;214;150192;-58
2023/10/26 02:17:25;;;;;;;18.10;14.70;;;;;;;10.27;75.19;97267.69;234475;214;140163;-58
2023/10/26 02:22:28;;;;;;;17.80;13.20;;;;;;;10.26;75.36;97257.98;234349;214;138268;-57
2023/10/26 02:27:32;;;;;;;18.10;13.20;;;;;;;10.28;75.92;97246.48;234558;214;150051;-55
2023/10/26 02:32:35;;;;;;;18.90;12.50;;;;;;;10.28;75.96;97249.17;234324;215;139388;-57
2023/10/26 02:37:38;;;;;;;18.10;12.60;;;;;;;10.25;76.13;97250.23;234510;215;138232;-57
2023/10/26 02:42:41;;;;;;;20.90;13.50;;;;;;;10.35;76.61;97242.98;234639;214;149941;-55
2023/10/26 02:47:45;;;;;;;23.00;14.30;;;;;;;10.46;76.57;97231.21;234578;215;139522;-55
2023/10/26 02:52:48;;;;;;;19.60;14.50;;;;;;;10.49;76.40;97223.12;234593;214;137861;-58
2023/10/26 02:57:51;;;;;;;20.00;13.60;;;;;;;10.53;76.68;97220.28;234557;214;149188;-55
2023/10/26 03:02:55;;;;;;;16.80;12.70;;;;;;;10.55;76.54;97210.85;234484;214;140094;-58
2023/10/26 03:07:59;;;;;;;18.00;12.20;;;;;;;10.53;76.48;97204.47;234459;215;138311;-58
2023/10/26 03:13:04;;;;;;;87.30;62.90;;;;;;;10.59;77.16;97195.25;234443;215;149384;-59
2023/10/26 03:18:08;;;;;;;35.30;25.00;;;;;;;10.63;76.69;97189.55;234561;215;139462;-59
2023/10/26 03:23:11;;;;;;;183.10;129.80;;;;;;;10.66;76.53;97180.61;234478;214;138265;-58
2023/10/26 03:28:15;;;;;;;26.80;19.10;;;;;;;10.68;76.46;97177.45;233831;215;149990;-57
2023/10/26 03:33:18;;;;;;;18.70;13.20;;;;;;;10.65;76.26;97177.70;234071;214;138766;-57
2023/10/26 03:38:21;;;;;;;20.10;13.60;;;;;;;10.58;75.98;97178.55;234611;214;138448;-58
2023/10/26 03:43:24;;;;;;;22.10;13.30;;;;;;;10.51;76.03;97192.60;234729;214;149986;-58
2023/10/26 03:48:27;;;;;;;19.50;12.70;;;;;;;10.44;76.05;97201.77;234512;214;140484;-58
2023/10/26 03:53:31;;;;;;;19.30;12.10;;;;;;;10.39;76.43;97205.92;234630;214;139946;-56
2023/10/26 03:58:34;;;;;;;334.20;273.40;;;;;;;10.48;76.85;97204.08;234535;214;149694;-57
2023/10/26 04:03:37;;;;;;;22.60;16.30;;;;;;;10.65;77.49;97186.73;234369;215;138826;-58
2023/10/26 04:08:41;;;;;;;17.60;12.50;;;;;;;10.81;77.04;97186.84;234482;214;138294;-57
2023/10/26 04:13:44;;;;;;;15.40;12.10;;;;;;;10.80;76.62;97187.27;234512;215;149012;-56
2023/10/26 04:18:47;;;;;;;19.70;12.00;;;;;;;10.78;76.64;97180.27;234534;214;139281;-58
2023/10/26 04:23:50;;;;;;;17.30;11.40;;;;;;;10.78;76.62;97173.79;233560;215;137541;-58
2023/10/26 04:28:53;;;;;;;13.80;11.10;;;;;;;10.80;76.79;97162.25;234356;214;150792;-58
2023/10/26 04:33:58;;;;;;;17.40;11.60;;;;;;;10.82;76.80;97155.39;234462;215;138706;-57
2023/10/26 04:39:01;;;;;;;16.70;12.10;;;;;;;10.84;76.88;97147.20;234441;214;139646;-58
2023/10/26 04:44:07;;;;;;;19.20;12.40;;;;;;;10.88;76.69;97181.09;234381;214;149940;-56
2023/10/26 04:49:10;;;;;;;16.20;12.60;;;;;;;10.88;76.83;97185.35;234161;213;138984;-58
2023/10/26 04:54:13;;;;;;;20.20;12.00;;;;;;;10.91;77.21;97179.87;233819;214;138816;-57
2023/10/26 04:59:17;;;;;;;18.40;11.60;;;;;;;10.93;77.38;97168.88;234537;215;150331;-58
2023/10/26 05:04:20;;;;;;;18.60;11.70;;;;;;;10.94;77.58;97176.25;234470;214;138880;-59
2023/10/26 05:09:23;;;;;;;18.30;12.10;;;;;;;10.98;77.82;97174.85;234491;214;139003;-58
2023/10/26 05:14:26;;;;;;;18.50;11.90;;;;;;;11.07;78.05;97175.73;234422;214;149255;-60
2023/10/26 05:19:29;;;;;;;24.40;12.30;;;;;;;11.18;77.93;97175.77;233869;214;138862;-59
2023/10/26 05:24:32;;;;;;;20.30;12.40;;;;;;;11.19;77.90;97180.98;234248;214;138647;-58
2023/10/26 05:29:35;;;;;;;27.00;13.80;;;;;;;11.21;78.05;97175.81;234593;215;149666;-56
2023/10/26 05:34:39;;;;;;;28.60;14.40;;;;;;;11.21;78.34;97175.43;233662;214;140340;-58
2023/10/26 05:39:42;;;;;;;19.20;12.20;;;;;;;11.25;78.44;97191.45;234151;214;139270;-60
2023/10/26 05:44:45;;;;;;;21.90;13.40;;;;;;;11.30;78.65;97221.64;234672;213;149539;-60
2023/10/26 05:49:49;;;;;;;23.10;12.80;;;;;;;11.36;78.83;97227.48;233598;215;139395;-57
2023/10/26 05:54:54;;;;;;;33.20;19.40;;;;;;;11.42;78.75;97209.85;234418;215;138474;-59
2023/10/26 05:59:57;;;;;;;23.20;14.60;;;;;;;11.48;78.60;97193.89;234744;214;149404;-58
2023/10/26 06:05:00;;;;;;;23.70;14.30;;;;;;;11.51;78.53;97192.81;234580;214;139500;-58
2023/10/26 06:10:05;;;;;;;19.90;12.60;;;;;;;11.51;78.73;97193.50;234476;215;138948;-58
2023/10/26 06:15:10;;;;;;;18.50;11.90;;;;;;;11.54;78.93;97202.30;234417;215;149199;-59
2023/10/26 06:20:13;;;;;;;20.30;12.80;;;;;;;11.63;78.83;97211.25;234453;215;141621;-58
2023/10/26 06:25:18;;;;;;;20.60;14.10;;;;;;;11.70;78.58;97214.69;234540;214;137987;-58
2023/10/26 06:30:23;;;;;;;19.10;12.60;;;;;;;11.72;78.40;97216.42;234687;215;151573;-58
2023/10/26 06:35:26;;;;;;;20.10;13.20;;;;;;;11.70;78.20;97223.21;234622;215;139463;-58
2023/10/26 06:40:29;;;;;;;20.10;14.00;;;;;;;11.64;78.26;97201.23;234477;215;140284;-55
2023/10/26 06:45:33;;;;;;;17.00;11.20;;;;;;;11.66;78.52;97174.17;234476;214;149972;-59
2023/10/26 06:50:36;;;;;;;13.80;10.00;;;;;;;11.77;78.55;97151.83;234205;215;139706;-58
2023/10/26 06:55:39;;;;;;;15.50;9.50;;;;;;;11.93;78.58;97136.77;234500;214;138148;-58
2023/10/26 07:00:42;;;;;;;15.80;10.70;;;;;;;12.05;78.94;97129.01;234523;214;150370;-58
2023/10/26 07:05:55;;;;;;;20.40;12.50;;;;;;;12.12;79.06;97149.13;234206;215;139169;-56
2023/10/26 07:10:59;;;;;;;18.70;12.50;;;;;;;12.19;79.39;97153.64;234345;215;138486;-57
2023/10/26 07:16:03;;;;;;;17.40;12.60;;;;;;;12.28;79.57;97152.48;234550;214;149604;-57
2023/10/26 07:21:07;;;;;;;21.70;13.00;;;;;;;12.44;79.72;97153.89;234183;214;139504;-57
2023/10/26 07:26:15;;;;;;;15.10;12.10;;;;;;;12.56;79.39;97155.77;234469;214;137919;-57
2023/10/26 07:31:21;;;;;;;18.80;11.80;;;;;;;12.69;79.51;97156.08;234523;214;150568;-58
2023/10/26 07:36:30;;;;;;;19.80;11.40;;;;;;;12.74;79.28;97152.18;234312;214;140234;-57
2023/10/26 07:41:33;;;;;;;14.90;9.70;;;;;;;12.78;79.10;97141.96;234597;215;138221;-56
2023/10/26 07:46:57;;;;;;;16.90;10.20;;;;;;;12.84;78.74;97130.92;234165;214;150143;-57
2023/10/26 07:52:01;;;;;;;15.90;10.70;;;;;;;12.89;78.71;97142.77;234267;214;138968;-56
2023/10/26 07:57:04;;;;;;;17.30;11.20;;;;;;;12.91;78.47;97144.23;234020;214;138469;-57
2023/10/26 08:02:08;;;;;;;17.70;11.00;;;;;;;12.91;78.86;97146.86;233570;214;150211;-57
2023/10/26 08:07:11;;;;;;;18.10;11.10;;;;;;;12.93;79.14;97136.30;234506;214;140168;-58
2023/10/26 08:12:14;;;;;;;17.80;10.30;;;;;;;12.93;79.29;97139.06;234630;215;138944;-58
2023/10/26 08:17:18;;;;;;;14.20;9.60;;;;;;;12.94;79.56;97139.59;234578;214;232405;-58
2023/10/26 08:22:21;;;;;;;19.40;10.60;;;;;;;13.01;79.69;97151.95;234484;214;139386;-58
2023/10/26 08:27:25;;;;;;;18.90;10.70;;;;;;;13.12;79.77;97148.17;234319;214;138051;-57
2023/10/26 08:32:29;;;;;;;18.60;11.20;;;;;;;13.22;79.84;97151.73;234309;214;149134;-57
2023/10/26 08:37:32;;;;;;;16.20;9.50;;;;;;;13.32;79.71;97140.20;234499;214;139975;-57
2023/10/26 08:42:38;;;;;;;14.70;8.20;;;;;;;13.38;79.83;97131.77;234320;215;138187;-57
2023/10/26 08:47:42;;;;;;;87.20;59.90;;;;;;;13.45;79.63;97123.52;234193;214;151069;-57
2023/10/26 08:52:46;;;;;;;15.90;8.80;;;;;;;13.62;79.67;97122.83;234427;215;138913;-58
2023/10/26 08:57:54;;;;;;;17.40;8.00;;;;;;;13.73;79.17;97115.13;234441;214;137531;-59
2023/10/26 09:02:58;;;;;;;13.70;8.80;;;;;;;13.83;79.05;97121.52;234393;215;150547;-61
2023/10/26 09:08:18;;;;;;;15.70;7.80;;;;;;;13.88;78.99;97127.94;234206;215;140294;-61
2023/10/26 09:13:26;;;;;;;12.90;7.20;;;;;;;13.93;78.92;97118.60;234284;214;137848;-60
2023/10/26 09:18:31;;;;;;;14.20;7.20;;;;;;;14.00;78.93;97117.02;234405;214;150878;-61
2023/10/26 09:23:37;;;;;;;14.30;7.60;;;;;;;14.13;79.15;97117.72;234500;214;139421;-60
2023/10/26 09:28:53;;;;;;;15.20;7.80;;;;;;;14.29;78.96;97122.82;234302;214;137524;-61
2023/10/26 09:34:11;;;;;;;13.20;8.10;;;;;;;14.41;78.72;97116.01;234078;215;149244;-59
2023/10/26 09:39:14;;;;;;;13.60;7.10;;;;;;;14.56;78.75;97114.61;234377;214;138785;-60
2023/10/26 09:44:17;;;;;;;14.70;6.90;;;;;;;14.59;78.02;97108.52;234401;214;138746;-60
2023/10/26 09:49:23;;;;;;;11.30;7.10;;;;;;;14.61;77.97;97105.73;234518;214;149306;-58
2023/10/26 09:54:29;;;;;;;10.10;6.10;;;;;;;14.70;77.82;97101.10;234552;215;138968;-60
2023/10/26 09:59:33;;;;;;;11.60;6.40;;;;;;;14.79;77.56;97096.25;234581;214;138567;-59
2023/10/26 10:04:37;;;;;;;9.00;5.60;;;;;;;14.86;77.13;97101.23;234319;214;150141;-60
2023/10/26 10:10:04;;;;;;;9.70;5.80;;;;;;;14.89;76.84;97092.81;234103;214;140076;-59
2023/10/26 10:15:11;;;;;;;9.90;5.80;;;;;;;14.97;76.85;97091.27;234322;215;137737;-68
2023/10/26 10:20:17;;;;;;;358.10;289.00;;;;;;;15.05;76.81;97084.30;234014;215;149950;-57
2023/10/26 10:25:23;;;;;;;13.40;8.40;;;;;;;15.17;77.45;97079.91;234144;215;141023;-58
2023/10/26 10:30:31;;;;;;;8.10;5.20;;;;;;;15.32;76.79;97079.42;234241;215;138716;-58
2023/10/26 10:35:43;;;;;;;7.00;5.10;;;;;;;15.41;76.45;97075.77;234297;215;149618;-57
2023/10/26 10:40:55;;;;;;;14.50;8.40;;;;;;;15.51;75.52;97080.07;234049;215;139603;-58
2023/10/26 10:46:16;;;;;;;9.40;5.30;;;;;;;15.54;74.97;97080.75;234081;215;137947;-56
2023/10/26 10:51:19;;;;;;;8.10;4.60;;;;;;;15.61;74.98;97066.77;234223;215;149944;-58
2023/10/26 10:56:26;;;;;;;4.80;3.20;;;;;;;15.74;74.50;97064.73;234100;215;138919;-57
2023/10/26 11:01:29;;;;;;;6.60;2.30;;;;;;;15.83;73.25;97059.05;234280;215;138436;-56
2023/10/26 11:06:33;;;;;;;5.90;3.00;;;;;;;15.98;72.85;97062.96;234292;215;150147;-58
2023/10/26 11:11:36;;;;;;;4.60;2.80;;;;;;;16.26;72.80;97057.44;234291;215;141489;-58
2023/10/26 11:16:42;;;;;;;7.50;2.10;;;;;;;16.50;71.97;97058.71;234028;215;137498;-58
2023/10/26 11:21:46;;;;;;;3.70;1.50;;;;;;;16.58;69.37;97058.14;234148;215;149873;-59
2023/10/26 11:27:12;;;;;;;2.90;1.50;;;;;;;16.64;67.46;97056.14;234172;215;138762;-59
2023/10/26 11:32:26;;;;;;;4.90;1.10;;;;;;;16.96;65.97;97059.95;234285;215;137804;-59
2023/10/26 11:37:29;;;;;;;7.90;1.20;;;;;;;17.08;64.01;97063.70;234350;214;150703;-63
2023/10/26 11:42:57;;;;;;;4.50;1.20;;;;;;;16.99;63.00;97074.98;233911;215;140523;-59
2023/10/26 11:48:01;;;;;;;3.60;1.30;;;;;;;16.95;63.35;97068.67;234623;214;137059;-59
2023/10/26 11:53:05;;;;;;;2.10;1.00;;;;;;;16.99;63.38;97070.98;234416;214;151326;-59
2023/10/26 11:58:08;;;;;;;61.60;43.80;;;;;;;17.03;61.15;97072.19;234393;214;140823;-59
2023/10/26 12:03:11;;;;;;;4.50;2.30;;;;;;;16.96;61.19;97074.97;234391;214;138950;-59
2023/10/26 12:08:15;;;;;;;1.80;1.20;;;;;;;16.81;60.39;97075.83;234464;214;149217;-60
2023/10/26 12:13:18;;;;;;;2.70;1.00;;;;;;;16.68;60.25;97072.55;234426;214;139321;-60
2023/10/26 12:18:21;;;;;;;2.90;0.80;;;;;;;16.56;59.73;97070.21;234359;214;138356;-59
2023/10/26 12:23:24;;;;;;;3.10;1.00;;;;;;;16.54;60.33;97073.95;234511;215;149157;-59
2023/10/26 12:28:27;;;;;;;4.00;0.90;;;;;;;16.61;60.25;97075.14;234277;214;138889;-60
2023/10/26 12:33:32;;;;;;;2.70;0.70;;;;;;;16.65;59.09;97072.15;234371;214;138089;-59
2023/10/26 12:38:41;;;;;;;3.60;0.90;;;;;;;16.63;58.28;97069.38;234317;215;150701;-59
2023/10/26 12:43:44;;;;;;;3.30;0.90;;;;;;;16.66;58.69;97068.38;234295;215;139043;-58
2023/10/26 12:48:48;;;;;;;4.30;1.10;;;;;;;16.64;58.30;97064.63;234378;214;138065;-59
2023/10/26 12:53:51;;;;;;;5.20;1.20;;;;;;;16.61;58.61;97059.22;234495;214;149475;-60
2023/10/26 12:58:55;;;;;;;4.90;1.30;;;;;;;16.59;58.52;97068.85;234326;214;139775;-60
2023/10/26 13:03:58;;;;;;;5.10;1.20;;;;;;;16.59;58.69;97076.01;234332;215;137053;-59
2023/10/26 13:09:05;;;;;;;2.80;1.20;;;;;;;16.59;57.63;97084.77;234006;214;150308;-62
2023/10/26 13:14:08;;;;;;;5.50;1.40;;;;;;;16.58;57.39;97076.11;234380;215;140170;-61
2023/10/26 13:19:11;;;;;;;3.30;1.00;;;;;;;16.58;57.09;97082.15;233945;214;138019;-61
2023/10/26 13:24:15;;;;;;;3.70;0.90;;;;;;;16.57;56.80;97086.17;234557;214;150758;-62
2023/10/26 13:29:18;;;;;;;3.00;1.00;;;;;;;16.56;56.75;97078.31;234445;214;140752;-61
2023/10/26 13:34:21;;;;;;;5.00;0.90;;;;;;;16.52;56.70;97078.77;233852;214;137929;-60
2023/10/26 13:39:24;;;;;;;1.40;0.70;;;;;;;16.47;56.67;97073.78;234386;214;149402;-62
2023/10/26 13:44:28;;;;;;;2.40;0.90;;;;;;;16.45;56.55;97075.06;233783;215;138846;-58
2023/10/26 13:49:31;;;;;;;1.50;0.70;;;;;;;16.43;56.38;97072.13;234174;215;138249;-61
2023/10/26 13:54:34;;;;;;;1.60;0.80;;;;;;;16.44;56.45;97079.92;234328;215;230906;-61
2023/10/26 13:59:39;;;;;;;2.20;0.90;;;;;;;16.50;56.37;97082.88;234500;214;140138;-62
2023/10/26 14:04:42;;;;;;;2.20;1.20;;;;;;;16.54;56.53;97082.41;234468;214;137095;-61
2023/10/26 14:09:45;;;;;;;2.50;1.00;;;;;;;16.56;56.41;97083.68;234315;215;149095;-60
2023/10/26 14:14:51;;;;;;;2.50;1.00;;;;;;;16.58;56.77;97081.84;234247;214;139675;-60
2023/10/26 14:19:54;;;;;;;2.10;1.10;;;;;;;16.62;56.65;97081.48;234441;215;138026;-59
2023/10/26 14:24:58;;;;;;;2.40;1.10;;;;;;;16.62;56.93;97084.23;234400;214;149507;-60
2023/10/26 14:30:02;;;;;;;91.20;69.30;;;;;;;16.59;56.77;97082.98;234412;214;139995;-59
2023/10/26 14:35:05;;;;;;;4.50;2.90;;;;;;;16.58;56.72;97077.72;234334;215;138279;-61
2023/10/26 14:40:08;;;;;;;2.70;1.40;;;;;;;16.53;56.68;97083.27;234465;215;149228;-60
2023/10/26 14:45:12;;;;;;;3.80;1.40;;;;;;;16.52;56.88;97076.05;234356;214;139255;-61
2023/10/26 14:50:15;;;;;;;3.20;1.20;;;;;;;16.53;56.70;97076.10;234115;214;138351;-61
2023/10/26 14:55:20;;;;;;;2.30;1.20;;;;;;;16.49;56.64;97081.75;234374;214;149197;-60
2023/10/26 15:00:23;;;;;;;3.20;1.30;;;;;;;16.47;56.92;97090.77;234407;214;140259;-61
2023/10/26 15:05:26;;;;;;;2.80;1.10;;;;;;;16.42;57.21;97083.33;234644;214;137205;-60
2023/10/26 15:10:29;;;;;;;4.40;2.00;;;;;;;16.38;57.30;97095.55;234423;215;150529;-61
2023/10/26 15:15:39;;;;;;;1.70;1.20;;;;;;;16.29;57.47;97105.15;234509;214;138954;-60
2023/10/26 15:20:43;;;;;;;7.40;1.60;;;;;;;16.23;57.86;97110.60;234228;215;137976;-60
2023/10/26 15:25:46;;;;;;;6.00;1.50;;;;;;;16.21;58.36;97111.49;234428;214;149269;-61
2023/10/26 15:30:49;;;;;;;4.60;1.60;;;;;;;16.19;58.48;97115.88;234530;215;139229;-60
2023/10/26 15:35:53;;;;;;;4.80;1.50;;;;;;;16.12;58.66;97114.79;233957;215;137314;-61
2023/10/26 15:41:04;;;;;;;6.30;2.10;;;;;;;16.05;59.09;97125.31;234108;214;149574;-61
2023/10/26 15:46:08;;;;;;;2.60;1.80;;;;;;;16.01;59.25;97127.58;234549;214;139078;-60
2023/10/26 15:51:14;;;;;;;8.80;2.30;;;;;;;15.97;59.56;97129.02;234260;215;138464;-59
2023/10/26 15:56:17;;;;;;;10.40;2.60;;;;;;;15.95;59.79;97136.90;234366;215;149226;-60
2023/10/26 16:01:20;;;;;;;6.30;2.10;;;;;;;15.92;59.79;97136.23;234204;215;139025;-60
2023/10/26 16:06:23;;;;;;;7.20;2.20;;;;;;;15.87;60.21;97138.76;233741;214;139766;-61
2023/10/26 16:11:27;;;;;;;5.00;2.10;;;;;;;15.78;60.77;97149.89;234112;214;149605;-60
2023/10/26 16:16:30;;;;;;;3.70;2.10;;;;;;;15.72;60.83;97152.20;234035;214;139227;-60
2023/10/26 16:21:33;;;;;;;4.60;2.50;;;;;;;15.68;61.30;97151.98;234239;214;140717;-62
2023/10/26 16:26:37;;;;;;;5.80;2.20;;;;;;;15.61;61.77;97153.48;234406;214;150329;-61
2023/10/26 16:31:40;;;;;;;4.50;2.40;;;;;;;15.55;61.14;97155.19;234436;215;139794;-62
2023/10/26 16:36:43;;;;;;;5.80;2.60;;;;;;;15.51;61.21;97151.67;234348;215;138191;-61
2023/10/26 16:41:46;;;;;;;5.30;2.50;;;;;;;15.48;61.43;97151.67;233904;214;148518;-62
2023/10/26 16:46:50;;;;;;;8.00;2.80;;;;;;;15.38;61.84;97150.27;234242;214;140202;-59
2023/10/26 16:51:53;;;;;;;3.80;2.40;;;;;;;15.34;61.59;97144.28;234421;214;140062;-60
2023/10/26 16:56:56;;;;;;;4.80;2.70;;;;;;;15.30;61.57;97139.61;234417;214;149510;-59
2023/10/26 17:01:59;;;;;;;8.10;3.00;;;;;;;15.20;62.81;97138.59;234005;214;139172;-60
2023/10/26 17:07:03;;;;;;;7.20;2.70;;;;;;;14.99;63.63;97131.04;234449;215;138604;-60
2023/10/26 17:12:07;;;;;;;18.00;3.30;;;;;;;14.80;64.43;97125.86;234584;215;150344;-59
2023/10/26 17:17:11;;;;;;;20.90;4.80;;;;;;;14.63;64.63;97129.46;234451;214;140796;-59
2023/10/26 17:22:15;;;;;;;21.40;4.10;;;;;;;14.51;64.96;97127.44;234405;214;138711;-59
2023/10/26 17:27:18;;;;;;;8.70;4.00;;;;;;;14.45;65.16;97125.17;234353;215;150202;-59
2023/10/26 17:32:21;;;;;;;11.80;3.70;;;;;;;14.44;65.21;97123.67;234136;214;140238;-59
2023/10/26 17:37:24;;;;;;;9.80;3.30;;;;;;;14.38;65.55;97122.13;234317;214;137417;-60
2023/10/26 17:42:28;;;;;;;11.80;3.80;;;;;;;14.35;65.64;97119.81;234107;214;150131;-60
2023/10/26 17:47:31;;;;;;;12.20;3.80;;;;;;;14.25;66.13;97122.31;234535;214;139988;-58
2023/10/26 17:52:34;;;;;;;10.90;3.60;;;;;;;14.10;66.54;97120.05;234411;215;137698;-57
2023/10/26 17:57:38;;;;;;;11.30;3.70;;;;;;;14.00;66.72;97117.73;234345;215;150634;-59
2023/10/26 18:02:41;;;;;;;9.80;3.30;;;;;;;13.87;66.95;97117.86;234296;214;138700;-58
2023/10/26 18:07:44;;;;;;;12.20;3.60;;;;;;;13.78;67.48;97123.44;233839;215;137342;-59
2023/10/26 18:12:48;;;;;;;11.00;4.20;;;;;;;13.73;67.59;97123.10;234233;214;150420;-59
2023/10/26 18:17:51;;;;;;;9.90;4.40;;;;;;;13.71;67.80;97121.46;234509;215;138912;-58
2023/10/26 18:22:54;;;;;;;15.70;4.80;;;;;;;13.67;67.96;97131.96;234415;214;137083;-58
2023/10/26 18:27:57;;;;;;;11.20;4.40;;;;;;;13.59;68.11;97142.92;234024;214;149469;-60
2023/10/26 18:33:01;;;;;;;10.00;3.70;;;;;;;13.50;68.23;97146.02;234437;214;139073;-59
2023/10/26 18:38:04;;;;;;;11.70;3.80;;;;;;;13.40;68.36;97153.66;234480;214;138065;-59
2023/10/26 18:43:08;;;;;;;345.70;261.80;;;;;;;13.33;68.90;97154.74;234463;214;149901;-60
2023/10/26 18:48:11;;;;;;;29.70;15.20;;;;;;;13.36;69.80;97157.95;234492;214;139310;-60
2023/10/26 18:53:17;;;;;;;18.10;5.70;;;;;;;13.33;69.28;97148.85;234366;215;138390;-59
2023/10/26 18:58:22;;;;;;;10.20;4.60;;;;;;;13.12;69.48;97150.13;234250;214;149050;-59
2023/10/26 19:03:25;;;;;;;13.80;5.10;;;;;;;13.07;69.98;97151.37;234235;215;140027;-58
2023/10/26 19:08:29;;;;;;;15.30;4.70;;;;;;;13.08;70.32;97153.35;233850;214;154276;-60
2023/10/26 19:13:32;;;;;;;36.70;21.20;;;;;;;13.15;70.74;97150.15;234387;214;149072;-59
2023/10/26 19:18:37;;;;;;;30.40;6.60;;;;;;;13.25;70.58;97146.10;234396;214;140836;-59
2023/10/26 19:23:41;;;;;;;23.30;6.20;;;;;;;13.22;70.53;97156.71;234479;214;137201;-58
2023/10/26 19:28:44;;;;;;;23.40;6.20;;;;;;;13.20;70.72;97151.74;234373;214;149233;-59
2023/10/26 19:33:48;;;;;;;108.00;89.90;;;;;;;13.19;71.15;97143.30;234262;215;138705;-59
2023/10/26 19:38:51;;;;;;;20.10;7.00;;;;;;;13.25;71.23;97141.12;234349;214;139336;-58
2023/10/26 19:43:54;;;;;;;12.90;6.70;;;;;;;13.24;71.16;97147.39;234171;215;149208;-60
2023/10/26 19:48:57;;;;;;;22.50;7.70;;;;;;;13.25;71.45;97146.10;234239;215;139967;-60
2023/10/26 19:54:01;;;;;;;24.30;10.00;;;;;;;13.32;71.48;97142.56;234402;215;138337;-58
2023/10/26 19:59:04;;;;;;;20.40;10.70;;;;;;;13.29;71.34;97136.40;234052;214;149939;-60
2023/10/26 20:04:07;;;;;;;159.10;115.20;;;;;;;13.26;71.53;97141.76;234266;215;139263;-56
2023/10/26 20:09:11;;;;;;;24.90;13.00;;;;;;;13.34;71.68;97140.40;234320;215;139218;-58
2023/10/26 20:14:15;;;;;;;23.90;11.10;;;;;;;13.28;71.07;97134.04;234269;215;151219;-56
2023/10/26 20:19:18;;;;;;;21.30;10.90;;;;;;;13.18;71.42;97125.20;234336;215;139002;-57
2023/10/26 20:24:22;;;;;;;21.50;10.70;;;;;;;13.12;71.77;97128.58;234524;215;138173;-58
2023/10/26 20:29:29;;;;;;;19.10;10.40;;;;;;;13.13;72.05;97135.18;234436;215;149578;-54
2023/10/26 20:34:32;;;;;;;22.10;10.90;;;;;;;13.23;72.19;97135.80;234263;215;139013;-57
2023/10/26 20:39:35;;;;;;;22.40;10.00;;;;;;;13.27;72.18;97143.19;234320;215;138712;-59
2023/10/26 20:44:38;;;;;;;23.90;11.00;;;;;;;13.30;72.37;97143.83;234291;215;151048;-58
2023/10/26 20:49:42;;;;;;;31.90;10.70;;;;;;;13.30;72.69;97149.83;234196;215;138640;-57
2023/10/26 20:54:45;;;;;;;27.60;11.90;;;;;;;13.29;72.73;97152.60;234289;215;139089;-59
2023/10/26 20:59:48;;;;;;;28.00;11.50;;;;;;;13.26;72.72;97153.65;234457;215;150659;-58
2023/10/26 21:04:57;;;;;;;29.20;11.00;;;;;;;13.22;72.75;97156.40;234209;215;139312;-58
2023/10/26 21:10:01;;;;;;;29.90;11.20;;;;;;;13.21;72.71;97157.36;234256;215;139022;-59
2023/10/26 21:15:05;;;;;;;29.40;12.40;;;;;;;13.24;72.79;97159.18;234264;215;149537;-58
2023/10/26 21:20:08;;;;;;;29.90;11.80;;;;;;;13.28;72.70;97158.08;234390;215;138796;-58
2023/10/26 21:25:13;;;;;;;32.60;14.10;;;;;;;13.31;72.34;97160.11;234319;215;138095;-58
2023/10/26 21:30:17;;;;;;;21.40;13.00;;;;;;;13.29;72.11;97154.64;234398;208;150066;-58
2023/10/26 21:35:22;;;;;;;23.70;12.30;;;;;;;13.23;71.74;97148.80;234367;215;140465;-58
2023/10/26 21:40:25;;;;;;;24.90;13.80;;;;;;;13.15;71.40;97144.09;234370;215;139202;-58
2023/10/26 21:45:29;;;;;;;22.90;13.40;;;;;;;13.06;71.39;97141.25;234329;215;149106;-58
2023/10/26 21:50:35;;;;;;;18.90;11.40;;;;;;;12.99;71.44;97143.58;234386;215;141062;-57
2023/10/26 21:55:39;;;;;;;19.40;12.40;;;;;;;12.99;71.67;97136.08;234355;215;137907;-58
2023/10/26 22:00:42;;;;;;;24.50;11.50;;;;;;;13.00;71.63;97130.30;234428;215;149245;-56
2023/10/26 22:05:45;;;;;;;23.90;12.70;;;;;;;13.01;71.75;97133.05;234432;215;140618;-57
2023/10/26 22:10:48;;;;;;;23.80;12.60;;;;;;;13.00;71.96;97133.70;233866;215;138890;-57
2023/10/26 22:15:51;;;;;;;22.10;12.30;;;;;;;12.96;71.99;97141.15;233833;215;149758;-57
2023/10/26 22:21:00;;;;;;;23.20;12.20;;;;;;;12.91;72.23;97135.48;234301;215;139254;-57
2023/10/26 22:26:03;;;;;;;20.60;11.90;;;;;;;12.88;72.48;97138.10;234428;215;138866;-57
2023/10/26 22:31:08;;;;;;;22.90;12.10;;;;;;;12.86;72.67;97133.91;234381;215;149464;-56
2023/10/26 22:36:11;;;;;;;19.70;11.30;;;;;;;12.85;72.81;97137.05;234562;214;141069;-58
2023/10/26 22:41:15;;;;;;;22.90;11.90;;;;;;;12.85;73.08;97141.98;234324;215;139424;-57
2023/10/26 22:46:18;;;;;;;22.20;11.80;;;;;;;12.87;73.15;97150.64;233848;215;149858;-57
2023/10/26 22:51:21;;;;;;;23.50;11.40;;;;;;;12.92;73.10;97145.73;233802;215;139572;-57
2023/10/26 22:56:24;;;;;;;19.10;10.30;;;;;;;12.99;72.87;97137.11;234357;215;137383;-57
2023/10/26 23:01:27;;;;;;;19.00;10.00;;;;;;;13.12;72.88;97131.80;234314;215;149158;-58
2023/10/26 23:06:32;;;;;;;18.70;10.40;;;;;;;13.19;72.84;97132.45;234331;215;139218;-58
2023/10/26 23:11:35;;;;;;;14.90;8.00;;;;;;;13.23;72.98;97116.55;234418;215;139703;-58